sensor_id;sensor_type;location;lat;lon;timestamp;P1;durP1;ratioP1;P2;durP2;ratioP2
57375;SDS011;44805;45.048;5.062;2022-10-29T00:18:55;20.50;;;9.80;;
57375;SDS011;44805;45.048;5.062;2022-10-29T00:21:22;21.00;;;8.90;;
57375;SDS011;44805;45.048;5.062;2022-10-29T00:23:49;18.35;;;9.45;;
57375;SDS011;44805;45.048;5.062;2022-10-29T00:26:17;18.80;;;9.02;;
57375;SDS011;44805;45.048;5.062;2022-10-29T00:28:44;18.90;;;9.13;;
57375;SDS011;44805;45.048;5.062;2022-10-29T00:31:14;15.90;;;9.00;;
57375;SDS011;44805;45.048;5.062;2022-10-29T00:33:42;16.23;;;9.18;;
57375;SDS011;44805;45.048;5.062;2022-10-29T00:36:11;19.98;;;9.13;;
57375;SDS011;44805;45.048;5.062;2022-10-29T00:38:38;18.42;;;9.30;;
57375;SDS011;44805;45.048;5.062;2022-10-29T00:41:04;20.83;;;9.82;;
57375;SDS011;44805;45.048;5.062;2022-10-29T00:43:32;18.02;;;9.13;;
57375;SDS011;44805;45.048;5.062;2022-10-29T00:46:06;18.58;;;9.93;;
57375;SDS011;44805;45.048;5.062;2022-10-29T00:48:36;19.65;;;9.90;;
57375;SDS011;44805;45.048;5.062;2022-10-29T00:51:06;21.15;;;9.52;;
57375;SDS011;44805;45.048;5.062;2022-10-29T00:53:36;18.10;;;9.60;;
57375;SDS011;44805;45.048;5.062;2022-10-29T00:56:07;20.52;;;9.70;;
57375;SDS011;44805;45.048;5.062;2022-10-29T00:58:33;18.23;;;9.98;;
57375;SDS011;44805;45.048;5.062;2022-10-29T01:00:58;19.73;;;9.93;;
57375;SDS011;44805;45.048;5.062;2022-10-29T01:03:24;19.52;;;9.52;;
57375;SDS011;44805;45.048;5.062;2022-10-29T01:05:50;20.65;;;10.35;;
57375;SDS011;44805;45.048;5.062;2022-10-29T01:08:17;19.05;;;9.90;;
57375;SDS011;44805;45.048;5.062;2022-10-29T01:19:12;20.17;;;9.00;;
57375;SDS011;44805;45.048;5.062;2022-10-29T01:21:51;16.98;;;9.25;;
57375;SDS011;44805;45.048;5.062;2022-10-29T01:27:47;23.55;;;10.00;;
57375;SDS011;44805;45.048;5.062;2022-10-29T01:32:46;17.38;;;9.00;;
57375;SDS011;44805;45.048;5.062;2022-10-29T01:38:29;19.98;;;9.07;;
57375;SDS011;44805;45.048;5.062;2022-10-29T01:43:40;16.23;;;9.07;;
57375;SDS011;44805;45.048;5.062;2022-10-29T01:46:35;20.77;;;9.60;;
57375;SDS011;44805;45.048;5.062;2022-10-29T01:49:08;17.63;;;8.52;;
57375;SDS011;44805;45.048;5.062;2022-10-29T01:51:38;14.27;;;8.73;;
57375;SDS011;44805;45.048;5.062;2022-10-29T01:54:06;15.02;;;8.48;;
57375;SDS011;44805;45.048;5.062;2022-10-29T01:56:35;25.17;;;10.35;;
57375;SDS011;44805;45.048;5.062;2022-10-29T01:59:02;19.25;;;9.57;;
57375;SDS011;44805;45.048;5.062;2022-10-29T02:12:34;17.45;;;9.38;;
57375;SDS011;44805;45.048;5.062;2022-10-29T02:16:05;18.83;;;9.48;;
57375;SDS011;44805;45.048;5.062;2022-10-29T02:18:06;19.75;;;10.40;;
57375;SDS011;44805;45.048;5.062;2022-10-29T02:20:33;21.52;;;9.30;;
57375;SDS011;44805;45.048;5.062;2022-10-29T02:22:59;19.42;;;9.45;;
57375;SDS011;44805;45.048;5.062;2022-10-29T02:25:25;18.05;;;10.38;;
57375;SDS011;44805;45.048;5.062;2022-10-29T02:27:51;20.00;;;10.30;;
57375;SDS011;44805;45.048;5.062;2022-10-29T02:30:16;17.05;;;9.10;;
57375;SDS011;44805;45.048;5.062;2022-10-29T02:32:42;19.10;;;9.88;;
57375;SDS011;44805;45.048;5.062;2022-10-29T02:35:08;17.60;;;9.77;;
57375;SDS011;44805;45.048;5.062;2022-10-29T02:37:33;25.45;;;10.32;;
57375;SDS011;44805;45.048;5.062;2022-10-29T02:39:59;17.15;;;10.10;;
57375;SDS011;44805;45.048;5.062;2022-10-29T02:42:26;21.42;;;9.23;;
57375;SDS011;44805;45.048;5.062;2022-10-29T02:44:51;18.58;;;9.02;;
57375;SDS011;44805;45.048;5.062;2022-10-29T02:47:17;20.50;;;10.13;;
57375;SDS011;44805;45.048;5.062;2022-10-29T02:49:42;20.60;;;9.90;;
57375;SDS011;44805;45.048;5.062;2022-10-29T02:52:08;18.50;;;9.30;;
57375;SDS011;44805;45.048;5.062;2022-10-29T02:54:33;17.27;;;8.88;;
57375;SDS011;44805;45.048;5.062;2022-10-29T02:56:59;20.15;;;9.75;;
57375;SDS011;44805;45.048;5.062;2022-10-29T02:59:25;16.40;;;9.98;;
57375;SDS011;44805;45.048;5.062;2022-10-29T03:01:50;22.10;;;10.45;;
57375;SDS011;44805;45.048;5.062;2022-10-29T03:04:15;18.13;;;9.68;;
57375;SDS011;44805;45.048;5.062;2022-10-29T03:06:41;21.02;;;11.05;;
57375;SDS011;44805;45.048;5.062;2022-10-29T03:09:06;19.70;;;9.32;;
57375;SDS011;44805;45.048;5.062;2022-10-29T03:11:32;17.88;;;9.13;;
57375;SDS011;44805;45.048;5.062;2022-10-29T03:13:58;19.35;;;9.65;;
57375;SDS011;44805;45.048;5.062;2022-10-29T03:16:23;18.30;;;9.40;;
57375;SDS011;44805;45.048;5.062;2022-10-29T03:18:49;20.60;;;9.95;;
57375;SDS011;44805;45.048;5.062;2022-10-29T03:21:14;21.38;;;9.90;;
57375;SDS011;44805;45.048;5.062;2022-10-29T03:23:40;19.17;;;9.48;;
57375;SDS011;44805;45.048;5.062;2022-10-29T03:26:05;20.98;;;10.23;;
57375;SDS011;44805;45.048;5.062;2022-10-29T03:28:31;17.98;;;10.02;;
57375;SDS011;44805;45.048;5.062;2022-10-29T03:30:59;24.60;;;11.38;;
57375;SDS011;44805;45.048;5.062;2022-10-29T03:33:25;21.33;;;9.43;;
57375;SDS011;44805;45.048;5.062;2022-10-29T03:36:00;17.85;;;9.43;;
57375;SDS011;44805;45.048;5.062;2022-10-29T03:38:27;23.90;;;9.93;;
57375;SDS011;44805;45.048;5.062;2022-10-29T03:40:54;21.02;;;10.48;;
57375;SDS011;44805;45.048;5.062;2022-10-29T03:43:19;19.23;;;9.55;;
57375;SDS011;44805;45.048;5.062;2022-10-29T03:45:49;17.38;;;9.75;;
57375;SDS011;44805;45.048;5.062;2022-10-29T03:48:15;21.02;;;10.02;;
57375;SDS011;44805;45.048;5.062;2022-10-29T03:50:41;20.33;;;8.95;;
57375;SDS011;44805;45.048;5.062;2022-10-29T03:53:07;16.85;;;7.97;;
57375;SDS011;44805;45.048;5.062;2022-10-29T03:55:32;18.20;;;9.50;;
57375;SDS011;44805;45.048;5.062;2022-10-29T03:57:57;17.17;;;9.15;;
57375;SDS011;44805;45.048;5.062;2022-10-29T04:00:23;17.67;;;9.52;;
57375;SDS011;44805;45.048;5.062;2022-10-29T04:02:48;18.35;;;8.57;;
57375;SDS011;44805;45.048;5.062;2022-10-29T04:05:14;17.30;;;8.85;;
57375;SDS011;44805;45.048;5.062;2022-10-29T04:07:39;15.90;;;8.20;;
57375;SDS011;44805;45.048;5.062;2022-10-29T04:10:05;21.70;;;9.25;;
57375;SDS011;44805;45.048;5.062;2022-10-29T04:12:30;20.95;;;9.43;;
57375;SDS011;44805;45.048;5.062;2022-10-29T04:14:56;18.48;;;9.32;;
57375;SDS011;44805;45.048;5.062;2022-10-29T04:17:21;19.00;;;9.48;;
57375;SDS011;44805;45.048;5.062;2022-10-29T04:19:47;20.83;;;8.82;;
57375;SDS011;44805;45.048;5.062;2022-10-29T04:22:12;17.17;;;8.73;;
57375;SDS011;44805;45.048;5.062;2022-10-29T04:24:38;17.23;;;8.07;;
57375;SDS011;44805;45.048;5.062;2022-10-29T04:27:03;20.25;;;9.35;;
57375;SDS011;44805;45.048;5.062;2022-10-29T04:29:29;17.60;;;9.32;;
57375;SDS011;44805;45.048;5.062;2022-10-29T04:31:54;18.45;;;9.35;;
57375;SDS011;44805;45.048;5.062;2022-10-29T04:34:19;18.77;;;8.68;;
57375;SDS011;44805;45.048;5.062;2022-10-29T04:36:45;19.10;;;9.10;;
57375;SDS011;44805;45.048;5.062;2022-10-29T04:39:10;23.35;;;9.43;;
57375;SDS011;44805;45.048;5.062;2022-10-29T04:41:36;16.33;;;8.82;;
57375;SDS011;44805;45.048;5.062;2022-10-29T04:44:01;17.08;;;9.10;;
57375;SDS011;44805;45.048;5.062;2022-10-29T04:46:30;18.42;;;9.93;;
57375;SDS011;44805;45.048;5.062;2022-10-29T04:48:55;20.42;;;9.68;;
57375;SDS011;44805;45.048;5.062;2022-10-29T04:51:22;17.80;;;9.18;;
57375;SDS011;44805;45.048;5.062;2022-10-29T04:53:48;17.50;;;9.93;;
57375;SDS011;44805;45.048;5.062;2022-10-29T04:56:14;21.75;;;9.43;;
57375;SDS011;44805;45.048;5.062;2022-10-29T04:58:39;16.70;;;9.23;;
57375;SDS011;44805;45.048;5.062;2022-10-29T05:01:05;18.77;;;9.35;;
57375;SDS011;44805;45.048;5.062;2022-10-29T05:03:31;18.08;;;8.18;;
57375;SDS011;44805;45.048;5.062;2022-10-29T05:05:56;17.63;;;8.90;;
57375;SDS011;44805;45.048;5.062;2022-10-29T05:08:22;17.70;;;9.52;;
57375;SDS011;44805;45.048;5.062;2022-10-29T05:10:48;17.20;;;8.88;;
57375;SDS011;44805;45.048;5.062;2022-10-29T05:13:13;20.30;;;8.32;;
57375;SDS011;44805;45.048;5.062;2022-10-29T05:15:39;19.38;;;9.15;;
57375;SDS011;44805;45.048;5.062;2022-10-29T05:18:11;19.05;;;8.85;;
57375;SDS011;44805;45.048;5.062;2022-10-29T05:20:37;15.82;;;8.20;;
57375;SDS011;44805;45.048;5.062;2022-10-29T05:23:03;19.70;;;10.00;;
57375;SDS011;44805;45.048;5.062;2022-10-29T05:25:30;18.25;;;8.45;;
57375;SDS011;44805;45.048;5.062;2022-10-29T05:28:02;18.20;;;9.05;;
57375;SDS011;44805;45.048;5.062;2022-10-29T05:30:29;19.13;;;9.00;;
57375;SDS011;44805;45.048;5.062;2022-10-29T05:32:55;20.15;;;9.02;;
57375;SDS011;44805;45.048;5.062;2022-10-29T05:35:21;16.98;;;8.38;;
57375;SDS011;44805;45.048;5.062;2022-10-29T05:37:50;18.77;;;8.52;;
57375;SDS011;44805;45.048;5.062;2022-10-29T05:40:16;20.42;;;8.98;;
57375;SDS011;44805;45.048;5.062;2022-10-29T05:42:43;20.73;;;9.32;;
57375;SDS011;44805;45.048;5.062;2022-10-29T05:45:09;16.75;;;9.20;;
57375;SDS011;44805;45.048;5.062;2022-10-29T05:47:34;20.75;;;10.25;;
57375;SDS011;44805;45.048;5.062;2022-10-29T05:50:00;19.45;;;9.20;;
57375;SDS011;44805;45.048;5.062;2022-10-29T05:52:25;19.63;;;9.57;;
57375;SDS011;44805;45.048;5.062;2022-10-29T05:54:51;17.25;;;9.10;;
57375;SDS011;44805;45.048;5.062;2022-10-29T05:57:16;18.20;;;8.82;;
57375;SDS011;44805;45.048;5.062;2022-10-29T05:59:41;18.05;;;9.23;;
57375;SDS011;44805;45.048;5.062;2022-10-29T06:02:08;16.67;;;7.78;;
57375;SDS011;44805;45.048;5.062;2022-10-29T06:04:34;19.23;;;8.73;;
57375;SDS011;44805;45.048;5.062;2022-10-29T06:06:59;23.70;;;9.93;;
57375;SDS011;44805;45.048;5.062;2022-10-29T06:09:25;19.17;;;8.60;;
57375;SDS011;44805;45.048;5.062;2022-10-29T06:11:51;15.77;;;8.02;;
57375;SDS011;44805;45.048;5.062;2022-10-29T06:14:16;16.23;;;8.93;;
57375;SDS011;44805;45.048;5.062;2022-10-29T06:20:03;23.38;;;8.90;;
57375;SDS011;44805;45.048;5.062;2022-10-29T06:22:29;16.85;;;8.60;;
57375;SDS011;44805;45.048;5.062;2022-10-29T06:24:54;15.90;;;8.13;;
57375;SDS011;44805;45.048;5.062;2022-10-29T06:27:20;17.42;;;8.40;;
57375;SDS011;44805;45.048;5.062;2022-10-29T06:29:45;16.70;;;9.00;;
57375;SDS011;44805;45.048;5.062;2022-10-29T06:54:38;17.70;;;8.13;;
57375;SDS011;44805;45.048;5.062;2022-10-29T06:57:04;18.27;;;8.68;;
57375;SDS011;44805;45.048;5.062;2022-10-29T06:59:30;21.27;;;9.48;;
57375;SDS011;44805;45.048;5.062;2022-10-29T07:01:55;13.80;;;8.27;;
57375;SDS011;44805;45.048;5.062;2022-10-29T07:04:21;20.77;;;9.52;;
57375;SDS011;44805;45.048;5.062;2022-10-29T07:06:46;17.40;;;9.00;;
57375;SDS011;44805;45.048;5.062;2022-10-29T07:09:11;17.10;;;8.30;;
57375;SDS011;44805;45.048;5.062;2022-10-29T07:11:37;16.95;;;8.70;;
57375;SDS011;44805;45.048;5.062;2022-10-29T07:14:03;17.73;;;9.05;;
57375;SDS011;44805;45.048;5.062;2022-10-29T07:16:35;20.15;;;9.60;;
57375;SDS011;44805;45.048;5.062;2022-10-29T07:19:01;18.60;;;9.45;;
57375;SDS011;44805;45.048;5.062;2022-10-29T07:21:27;19.88;;;10.40;;
57375;SDS011;44805;45.048;5.062;2022-10-29T07:23:53;17.60;;;9.73;;
57375;SDS011;44805;45.048;5.062;2022-10-29T07:26:21;21.88;;;10.13;;
57375;SDS011;44805;45.048;5.062;2022-10-29T07:28:46;24.10;;;11.02;;
57375;SDS011;44805;45.048;5.062;2022-10-29T07:31:12;23.75;;;10.23;;
57375;SDS011;44805;45.048;5.062;2022-10-29T07:33:37;19.42;;;9.63;;
57375;SDS011;44805;45.048;5.062;2022-10-29T07:36:03;19.88;;;10.32;;
57375;SDS011;44805;45.048;5.062;2022-10-29T07:38:28;17.25;;;9.10;;
57375;SDS011;44805;45.048;5.062;2022-10-29T07:40:56;17.98;;;9.00;;
57375;SDS011;44805;45.048;5.062;2022-10-29T07:43:21;19.52;;;9.18;;
57375;SDS011;44805;45.048;5.062;2022-10-29T07:45:48;18.65;;;8.98;;
57375;SDS011;44805;45.048;5.062;2022-10-29T07:48:14;17.75;;;8.77;;
57375;SDS011;44805;45.048;5.062;2022-10-29T07:50:40;32.08;;;19.80;;
57375;SDS011;44805;45.048;5.062;2022-10-29T07:53:06;20.00;;;12.52;;
57375;SDS011;44805;45.048;5.062;2022-10-29T07:55:32;29.65;;;16.20;;
57375;SDS011;44805;45.048;5.062;2022-10-29T07:57:58;21.77;;;10.68;;
57375;SDS011;44805;45.048;5.062;2022-10-29T08:00:29;19.02;;;9.13;;
57375;SDS011;44805;45.048;5.062;2022-10-29T08:05:57;19.50;;;8.98;;
57375;SDS011;44805;45.048;5.062;2022-10-29T08:08:23;20.60;;;10.45;;
57375;SDS011;44805;45.048;5.062;2022-10-29T08:10:49;16.33;;;8.90;;
57375;SDS011;44805;45.048;5.062;2022-10-29T08:13:14;18.67;;;9.35;;
57375;SDS011;44805;45.048;5.062;2022-10-29T08:15:40;17.20;;;8.57;;
57375;SDS011;44805;45.048;5.062;2022-10-29T08:26:52;16.23;;;8.52;;
57375;SDS011;44805;45.048;5.062;2022-10-29T08:29:23;15.50;;;8.52;;
57375;SDS011;44805;45.048;5.062;2022-10-29T08:35:05;14.45;;;8.20;;
57375;SDS011;44805;45.048;5.062;2022-10-29T08:37:30;17.88;;;9.25;;
57375;SDS011;44805;45.048;5.062;2022-10-29T08:39:56;20.83;;;8.85;;
57375;SDS011;44805;45.048;5.062;2022-10-29T08:42:32;20.20;;;9.55;;
57375;SDS011;44805;45.048;5.062;2022-10-29T08:45:28;21.17;;;8.65;;
57375;SDS011;44805;45.048;5.062;2022-10-29T08:51:16;14.82;;;6.38;;
57375;SDS011;44805;45.048;5.062;2022-10-29T08:53:45;17.30;;;7.72;;
57375;SDS011;44805;45.048;5.062;2022-10-29T08:59:15;14.35;;;6.85;;
57375;SDS011;44805;45.048;5.062;2022-10-29T09:01:42;12.90;;;6.55;;
57375;SDS011;44805;45.048;5.062;2022-10-29T09:04:16;15.43;;;6.65;;
57375;SDS011;44805;45.048;5.062;2022-10-29T09:10:24;19.95;;;7.47;;
57375;SDS011;44805;45.048;5.062;2022-10-29T09:12:51;13.52;;;6.97;;
57375;SDS011;44805;45.048;5.062;2022-10-29T09:24:46;17.50;;;7.95;;
57375;SDS011;44805;45.048;5.062;2022-10-29T09:35:37;16.25;;;7.10;;
57375;SDS011;44805;45.048;5.062;2022-10-29T09:38:07;16.95;;;6.90;;
57375;SDS011;44805;45.048;5.062;2022-10-29T09:40:39;12.60;;;6.82;;
57375;SDS011;44805;45.048;5.062;2022-10-29T09:48:22;13.77;;;6.50;;
57375;SDS011;44805;45.048;5.062;2022-10-29T09:54:22;15.13;;;6.55;;
57375;SDS011;44805;45.048;5.062;2022-10-29T09:56:50;13.63;;;6.63;;
57375;SDS011;44805;45.048;5.062;2022-10-29T09:59:38;16.23;;;6.25;;
57375;SDS011;44805;45.048;5.062;2022-10-29T10:07:40;13.80;;;7.25;;
57375;SDS011;44805;45.048;5.062;2022-10-29T10:10:28;13.48;;;5.60;;
57375;SDS011;44805;45.048;5.062;2022-10-29T10:12:56;13.48;;;6.18;;
57375;SDS011;44805;45.048;5.062;2022-10-29T10:15:32;13.65;;;5.82;;
57375;SDS011;44805;45.048;5.062;2022-10-29T10:21:37;14.10;;;6.38;;
57375;SDS011;44805;45.048;5.062;2022-10-29T10:24:03;15.20;;;6.78;;
57375;SDS011;44805;45.048;5.062;2022-10-29T10:26:59;12.77;;;6.22;;
57375;SDS011;44805;45.048;5.062;2022-10-29T10:29:26;14.27;;;7.00;;
57375;SDS011;44805;45.048;5.062;2022-10-29T10:39:37;15.70;;;6.30;;
57375;SDS011;44805;45.048;5.062;2022-10-29T10:42:17;14.10;;;7.13;;
57375;SDS011;44805;45.048;5.062;2022-10-29T10:47:23;12.30;;;6.00;;
57375;SDS011;44805;45.048;5.062;2022-10-29T12:29:26;14.25;;;5.47;;
57375;SDS011;44805;45.048;5.062;2022-10-29T12:40:53;12.75;;;4.97;;
57375;SDS011;44805;45.048;5.062;2022-10-29T12:43:29;11.45;;;4.45;;
57375;SDS011;44805;45.048;5.062;2022-10-29T12:46:20;11.38;;;4.60;;
57375;SDS011;44805;45.048;5.062;2022-10-29T12:51:54;13.93;;;4.88;;
57375;SDS011;44805;45.048;5.062;2022-10-29T12:54:45;11.32;;;4.75;;
57375;SDS011;44805;45.048;5.062;2022-10-29T13:03:06;15.30;;;4.85;;
57375;SDS011;44805;45.048;5.062;2022-10-29T13:11:03;13.32;;;4.82;;
57375;SDS011;44805;45.048;5.062;2022-10-29T13:13:49;11.27;;;5.00;;
57375;SDS011;44805;45.048;5.062;2022-10-29T13:16:22;12.75;;;5.00;;
57375;SDS011;44805;45.048;5.062;2022-10-29T13:24:14;12.50;;;4.68;;
57375;SDS011;44805;45.048;5.062;2022-10-29T13:29:39;11.55;;;4.75;;
57375;SDS011;44805;45.048;5.062;2022-10-29T13:32:07;12.38;;;5.10;;
57375;SDS011;44805;45.048;5.062;2022-10-29T13:54:08;9.85;;;4.50;;
57375;SDS011;44805;45.048;5.062;2022-10-29T13:57:01;10.80;;;4.80;;
57375;SDS011;44805;45.048;5.062;2022-10-29T13:59:35;13.45;;;5.97;;
57375;SDS011;44805;45.048;5.062;2022-10-29T14:05:19;12.55;;;4.63;;
57375;SDS011;44805;45.048;5.062;2022-10-29T14:07:51;13.50;;;5.22;;
57375;SDS011;44805;45.048;5.062;2022-10-29T14:10:46;11.55;;;5.07;;
57375;SDS011;44805;45.048;5.062;2022-10-29T14:13:25;11.27;;;4.85;;
57375;SDS011;44805;45.048;5.062;2022-10-29T14:18:30;10.23;;;4.90;;
57375;SDS011;44805;45.048;5.062;2022-10-29T14:24:04;13.27;;;4.75;;
57375;SDS011;44805;45.048;5.062;2022-10-29T14:26:31;8.50;;;4.63;;
57375;SDS011;44805;45.048;5.062;2022-10-29T14:32:05;11.23;;;5.05;;
57375;SDS011;44805;45.048;5.062;2022-10-29T14:40:14;11.55;;;5.43;;
57375;SDS011;44805;45.048;5.062;2022-10-29T15:25:42;13.93;;;5.25;;
57375;SDS011;44805;45.048;5.062;2022-10-29T15:53:00;13.48;;;6.65;;
57375;SDS011;44805;45.048;5.062;2022-10-29T22:23:43;18.98;;;7.25;;
57375;SDS011;44805;45.048;5.062;2022-10-29T22:26:12;14.85;;;7.03;;
57375;SDS011;44805;45.048;5.062;2022-10-29T22:28:39;16.50;;;7.68;;
57375;SDS011;44805;45.048;5.062;2022-10-29T22:31:05;12.68;;;6.68;;
57375;SDS011;44805;45.048;5.062;2022-10-29T22:56:47;15.32;;;6.20;;
57375;SDS011;44805;45.048;5.062;2022-10-29T22:59:12;12.18;;;6.45;;
57375;SDS011;44805;45.048;5.062;2022-10-29T23:01:38;15.10;;;6.88;;
57375;SDS011;44805;45.048;5.062;2022-10-29T23:04:04;14.40;;;6.93;;
57375;SDS011;44805;45.048;5.062;2022-10-29T23:06:29;14.80;;;7.15;;
57375;SDS011;44805;45.048;5.062;2022-10-29T23:08:56;14.73;;;7.00;;
57375;SDS011;44805;45.048;5.062;2022-10-29T23:11:25;12.50;;;6.15;;
57375;SDS011;44805;45.048;5.062;2022-10-29T23:13:53;14.27;;;6.80;;
57375;SDS011;44805;45.048;5.062;2022-10-29T23:16:22;14.57;;;6.40;;
57375;SDS011;44805;45.048;5.062;2022-10-29T23:18:49;14.30;;;6.53;;
57375;SDS011;44805;45.048;5.062;2022-10-29T23:21:15;15.02;;;6.35;;
57375;SDS011;44805;45.048;5.062;2022-10-29T23:23:42;15.27;;;7.25;;
57375;SDS011;44805;45.048;5.062;2022-10-29T23:26:07;14.88;;;7.10;;
57375;SDS011;44805;45.048;5.062;2022-10-29T23:28:36;14.98;;;6.22;;
57375;SDS011;44805;45.048;5.062;2022-10-29T23:31:03;14.48;;;6.65;;
57375;SDS011;44805;45.048;5.062;2022-10-29T23:33:30;14.65;;;6.60;;
57375;SDS011;44805;45.048;5.062;2022-10-29T23:36:03;14.25;;;7.13;;
57375;SDS011;44805;45.048;5.062;2022-10-29T23:38:31;12.77;;;6.93;;
57375;SDS011;44805;45.048;5.062;2022-10-29T23:40:57;16.67;;;7.18;;
57375;SDS011;44805;45.048;5.062;2022-10-29T23:43:23;14.80;;;7.35;;
57375;SDS011;44805;45.048;5.062;2022-10-29T23:45:48;16.77;;;6.85;;
57375;SDS011;44805;45.048;5.062;2022-10-29T23:48:14;12.50;;;6.65;;
57375;SDS011;44805;45.048;5.062;2022-10-29T23:50:39;14.77;;;6.80;;
57375;SDS011;44805;45.048;5.062;2022-10-29T23:53:05;13.23;;;6.35;;
57375;SDS011;44805;45.048;5.062;2022-10-29T23:55:32;16.35;;;6.70;;
57375;SDS011;44805;45.048;5.062;2022-10-29T23:57:58;13.93;;;6.75;;
